Time;durP1;ratioP1;P1;durP2;ratioP2;P2;SDS_P1;SDS_P2;PMS_P1;PMS_P2;Temp;Humidity;BMP_temperature;BMP_pressure;BME280_temperature;BME280_humidity;BME280_pressure;Samples;Min_cycle;Max_cycle;Signal;HPM_P1;HPM_P2
2020/12/17 00:01:41;;;;;;;184.45;88.37;;;;;;;5.71;82.45;101240.11;126188;1100;23358;-77
2020/12/17 00:04:09;;;;;;;182.68;83.85;;;;;;;5.70;82.26;101242.98;126223;1099;27935;-78
2020/12/17 00:06:39;;;;;;;173.17;81.02;;;;;;;5.69;81.62;101241.25;126197;1100;23450;-78
2020/12/17 00:09:07;;;;;;;182.05;85.67;;;;;;;5.68;82.38;101242.25;126185;1100;26927;-78
2020/12/17 00:11:35;;;;;;;174.30;84.40;;;;;;;5.68;82.09;101245.81;126160;1100;23418;-79
2020/12/17 00:14:03;;;;;;;173.47;84.60;;;;;;;5.71;82.54;101245.52;126150;1100;24973;-77
2020/12/17 00:16:33;;;;;;;175.72;79.77;;;;;;;5.75;81.95;101245.27;126184;1100;23343;-78
2020/12/17 00:19:01;;;;;;;182.90;85.80;;;;;;;5.76;81.97;101245.13;126188;1100;27739;-81
2020/12/17 00:21:29;;;;;;;173.35;80.65;;;;;;;5.78;81.85;101244.97;126199;1100;23379;-78
2020/12/17 00:23:58;;;;;;;184.10;94.87;;;;;;;5.77;81.71;101244.13;126199;1101;23380;-78
2020/12/17 00:26:26;;;;;;;154.45;79.07;;;;;;;5.76;82.32;101239.72;126251;1100;23382;-77
2020/12/17 00:28:55;;;;;;;158.65;74.62;;;;;;;5.75;81.92;101239.84;126164;1100;23476;-77
2020/12/17 00:31:24;;;;;;;153.40;75.92;;;;;;;5.73;82.41;101242.69;126191;1100;26500;-78
2020/12/17 00:33:52;;;;;;;156.67;80.05;;;;;;;5.73;81.81;101242.69;126190;1100;26937;-78
2020/12/17 00:36:23;;;;;;;168.80;79.77;;;;;;;5.72;81.97;101247.25;126192;1100;23382;-78
2020/12/17 00:38:51;;;;;;;178.20;82.10;;;;;;;5.75;82.14;101239.84;126231;1100;23365;-76
2020/12/17 00:41:20;;;;;;;153.85;77.22;;;;;;;5.75;82.28;101248.82;126222;1101;23403;-76
2020/12/17 00:43:49;;;;;;;162.25;77.85;;;;;;;5.71;81.80;101247.37;126208;1100;23376;-77
2020/12/17 00:46:17;;;;;;;153.82;73.85;;;;;;;5.70;81.77;101240.27;126265;1098;23387;-76
2020/12/17 00:48:45;;;;;;;151.68;72.25;;;;;;;5.71;82.54;101244.67;126649;1100;23690;-77
2020/12/17 00:51:18;;;;;;;161.40;78.15;;;;;;;5.72;82.21;101246.41;126217;1100;23330;-78
2020/12/17 00:53:46;;;;;;;;;;;;;;;5.69;81.67;101246.66;126718;1099;26443;-78
2020/12/17 00:56:14;;;;;;;149.65;67.92;;;;;;;5.65;81.56;101232.53;126683;1098;21503;-77
2020/12/17 00:58:42;;;;;;;143.65;72.03;;;;;;;5.66;81.82;101239.68;126259;1098;24608;-76
2020/12/17 01:01:10;;;;;;;142.87;71.70;;;;;;;5.65;81.77;101235.23;126647;1098;26510;-77
2020/12/17 01:03:38;;;;;;;157.88;72.55;;;;;;;5.65;81.77;101234.39;126266;1100;23405;-76
2020/12/17 01:06:08;;;;;;;162.80;75.53;;;;;;;5.60;81.95;101237.52;126305;1100;23386;-77
2020/12/17 01:08:36;;;;;;;162.45;72.45;;;;;;;5.57;82.27;101231.52;126274;1100;23337;-77
2020/12/17 01:11:04;;;;;;;166.30;71.93;;;;;;;5.55;82.06;101225.38;126240;1100;23542;-75
2020/12/17 01:13:32;;;;;;;160.05;72.70;;;;;;;5.55;81.81;101225.38;126236;1100;23338;-76
2020/12/17 01:16:01;;;;;;;147.95;67.60;;;;;;;5.53;82.03;101233.66;126235;1100;23480;-76
2020/12/17 01:18:29;;;;;;;158.03;72.37;;;;;;;5.52;82.56;101235.48;126624;1098;23402;-76
2020/12/17 01:20:57;;;;;;;156.57;71.07;;;;;;;5.53;82.34;101234.50;126692;1098;23341;-76
2020/12/17 01:23:25;;;;;;;174.07;74.50;;;;;;;5.53;82.26;101233.66;126268;1100;23376;-77
2020/12/17 01:25:53;;;;;;;173.50;79.58;;;;;;;5.52;82.18;101232.78;126246;1100;23858;-76
2020/12/17 01:28:21;;;;;;;165.07;75.50;;;;;;;5.52;82.19;101227.36;126689;1098;26849;-77
2020/12/17 01:30:50;;;;;;;162.72;71.62;;;;;;;5.52;82.08;101230.07;126222;1100;23394;-77
2020/12/17 01:33:18;;;;;;;175.68;78.33;;;;;;;5.56;82.29;101230.66;126697;1098;23337;-76
2020/12/17 01:35:47;;;;;;;154.45;70.92;;;;;;;5.57;82.25;101221.56;126655;1099;23342;-78
2020/12/17 01:38:15;;;;;;;162.40;73.35;;;;;;;5.56;82.45;101225.25;126189;1100;23349;-75
2020/12/17 01:40:46;;;;;;;156.78;71.90;;;;;;;5.56;82.28;101227.11;126711;1098;26541;-75
2020/12/17 01:43:14;;;;;;;150.93;70.92;;;;;;;5.55;82.15;101225.38;126650;1098;26478;-75
2020/12/17 01:45:42;;;;;;;163.47;75.83;;;;;;;5.56;82.19;101221.70;126270;1100;23338;-75
2020/12/17 01:48:16;;;;;;;152.60;72.82;;;;;;;5.59;81.79;101221.41;126271;1100;26421;-75
2020/12/17 01:50:47;;;;;;;157.72;74.92;;;;;;;5.61;82.62;101222.12;126245;1100;26436;-75
2020/12/17 01:53:15;;;;;;;145.32;71.60;;;;;;;5.64;82.37;101222.72;126279;1100;23408;-74
2020/12/17 01:55:44;;;;;;;138.37;68.22;;;;;;;5.64;82.57;101220.01;126254;1098;26567;-75
2020/12/17 01:58:21;;;;;;;157.00;72.97;;;;;;;5.67;81.91;101226.99;126232;1100;23410;-76
2020/12/17 02:00:53;;;;;;;149.15;71.60;;;;;;;5.71;82.38;101225.72;126311;1100;23441;-75
2020/12/17 02:03:23;;;;;;;146.10;69.00;;;;;;;5.74;81.90;101228.17;126267;1100;25087;-75
2020/12/17 02:05:51;;;;;;;132.72;65.10;;;;;;;5.76;82.67;101220.77;126242;1099;23493;-75
2020/12/17 02:08:20;;;;;;;136.90;70.08;;;;;;;5.79;81.89;101231.30;126669;1098;23342;-74
2020/12/17 02:10:48;;;;;;;133.93;71.17;;;;;;;5.81;81.66;101232.02;126367;1100;23337;-76
2020/12/17 02:13:35;;;;;;;130.40;68.47;;;;;;;5.82;82.05;101219.33;126263;1100;23334;-77
2020/12/17 02:16:05;;;;;;;131.00;66.42;;;;;;;5.83;81.75;101224.62;126279;1098;23405;-75
2020/12/17 02:18:34;;;;;;;132.63;67.13;;;;;;;5.85;82.48;101219.92;126761;1098;26823;-76
2020/12/17 02:21:03;;;;;;;136.90;69.25;;;;;;;5.86;81.77;101226.19;126674;1098;23337;-76
2020/12/17 02:23:31;;;;;;;131.85;66.77;;;;;;;5.85;82.06;101228.05;126284;1099;23349;-76
2020/12/17 02:25:59;;;;;;;134.23;66.33;;;;;;;5.86;81.79;101221.62;126196;1101;23457;-78
2020/12/17 02:28:28;;;;;;;130.60;65.28;;;;;;;5.89;81.53;101225.92;126262;1100;23557;-76
2020/12/17 02:30:56;;;;;;;122.50;63.83;;;;;;;5.89;81.89;101221.36;126264;1098;23391;-76
2020/12/17 02:33:24;;;;;;;122.42;62.30;;;;;;;5.86;81.78;101226.19;126244;1100;23346;-75
2020/12/17 02:35:54;;;;;;;124.47;63.65;;;;;;;5.85;81.68;101217.21;126183;1100;26961;-76
2020/12/17 02:38:24;;;;;;;126.02;60.58;;;;;;;5.85;81.11;101222.63;126378;1098;23408;-76
2020/12/17 02:40:52;;;;;;;127.97;62.73;;;;;;;5.83;81.56;101211.08;126674;1098;23475;-76
2020/12/17 02:43:21;;;;;;;121.53;60.20;;;;;;;5.80;80.97;101216.75;126303;1098;23339;-75
2020/12/17 02:45:49;;;;;;;124.50;63.42;;;;;;;5.77;81.45;101208.92;126280;1098;23391;-74
2020/12/17 02:48:20;;;;;;;128.00;63.90;;;;;;;5.75;81.43;101212.77;126279;1100;23406;-76
2020/12/17 02:50:48;;;;;;;120.00;62.58;;;;;;;5.73;81.12;101212.91;126145;1101;24945;-75
2020/12/17 02:53:16;;;;;;;121.07;63.13;;;;;;;5.71;81.79;101212.19;126302;1100;23391;-76
2020/12/17 02:55:44;;;;;;;117.95;57.85;;;;;;;5.70;81.72;101215.91;126703;1098;24018;-77
2020/12/17 02:58:14;;;;;;;122.47;62.98;;;;;;;5.68;80.89;101218.73;126272;1098;26795;-75
2020/12/17 03:00:42;;;;;;;123.40;64.20;;;;;;;5.69;81.21;101214.17;126425;1100;23331;-78
2020/12/17 03:03:10;;;;;;;126.53;63.05;;;;;;;5.72;81.70;101222.03;126246;1100;23342;-74
2020/12/17 03:05:38;;;;;;;122.90;62.90;;;;;;;5.70;81.19;101211.34;126168;1101;23387;-78
2020/12/17 03:08:16;;;;;;;123.10;65.57;;;;;;;5.71;81.52;101212.19;126297;1100;26952;-75
2020/12/17 03:10:44;;;;;;;127.15;63.50;;;;;;;5.72;81.21;101216.62;126313;1100;23349;-74
2020/12/17 03:13:13;;;;;;;122.60;63.58;;;;;;;5.74;81.92;101217.34;126676;1098;23446;-77
2020/12/17 03:15:41;;;;;;;126.53;66.13;;;;;;;5.75;81.70;101213.62;126292;1100;23398;-76
2020/12/17 03:18:09;;;;;;;136.57;66.33;;;;;;;5.75;81.23;101207.36;126640;1098;23401;-75
2020/12/17 03:20:37;;;;;;;132.18;65.60;;;;;;;5.78;81.86;101213.33;126257;1100;23337;-76
2020/12/17 03:23:05;;;;;;;124.80;63.50;;;;;;;5.78;81.91;101210.63;126209;1100;23475;-75
2020/12/17 03:25:33;;;;;;;126.33;63.45;;;;;;;5.79;81.26;101211.50;126252;1100;23475;-76
2020/12/17 03:28:02;;;;;;;117.82;61.95;;;;;;;5.79;81.09;101215.06;126271;1100;23377;-76
2020/12/17 03:30:31;;;;;;;121.67;60.78;;;;;;;5.81;81.35;101206.80;126244;1099;23399;-76
2020/12/17 03:32:59;;;;;;;125.30;64.37;;;;;;;5.84;81.54;101212.77;126283;1100;23391;-76
2020/12/17 03:35:27;;;;;;;117.42;55.58;;;;;;;5.82;81.26;101203.93;126680;1098;25006;-75
2020/12/17 03:38:00;;;;;;;127.87;61.68;;;;;;;5.81;81.11;101207.66;126270;1100;23661;-77
2020/12/17 03:40:28;;;;;;;;;;;;;;;5.81;81.39;101204.95;126371;1100;23441;-77
2020/12/17 03:42:56;;;;;;;131.67;65.72;;;;;;;5.80;81.71;101211.34;126726;1098;21547;-76
2020/12/17 03:45:24;;;;;;;132.80;69.07;;;;;;;5.77;81.42;101208.92;126198;1100;23382;-76
2020/12/17 03:47:53;;;;;;;130.32;68.42;;;;;;;5.80;81.49;101216.75;126738;1100;23337;-76
2020/12/17 03:50:21;;;;;;;124.50;64.67;;;;;;;5.82;81.37;101208.50;126605;1098;23469;-77
2020/12/17 03:52:49;;;;;;;142.40;76.67;;;;;;;5.83;81.78;101207.52;126281;1099;26829;-76
2020/12/17 03:55:18;;;;;;;140.52;77.60;;;;;;;5.85;81.63;101209.09;126719;1098;23441;-75
2020/12/17 03:57:46;;;;;;;149.27;85.30;;;;;;;5.87;80.85;101206.25;126246;1099;24598;-75
2020/12/17 04:00:15;;;;;;;143.50;80.07;;;;;;;5.86;80.76;101207.23;126667;1098;23392;-76
2020/12/17 04:02:43;;;;;;;128.72;71.10;;;;;;;5.85;81.62;101206.37;126239;1100;23334;-76
2020/12/17 04:05:11;;;;;;;120.65;63.35;;;;;;;5.85;80.79;101200.97;126691;1099;23337;-76
2020/12/17 04:07:39;;;;;;;119.40;62.13;;;;;;;5.84;81.11;101207.36;126263;1098;23395;-77
2020/12/17 04:10:07;;;;;;;121.40;62.30;;;;;;;5.82;81.08;101205.80;126679;1100;23483;-77
2020/12/17 04:12:35;;;;;;;116.42;59.05;;;;;;;5.83;80.81;101199.39;126240;1100;23324;-77
2020/12/17 04:15:04;;;;;;;112.93;58.07;;;;;;;5.81;80.89;101201.39;126651;1098;27786;-77
2020/12/17 04:17:33;;;;;;;112.52;60.30;;;;;;;5.80;80.64;101197.80;126311;1100;26791;-78
2020/12/17 04:20:01;;;;;;;112.32;56.65;;;;;;;5.81;80.78;101196.82;126667;1098;23376;-76
2020/12/17 04:22:29;;;;;;;105.22;54.83;;;;;;;5.84;80.76;101196.53;126742;1098;23346;-77
2020/12/17 04:24:57;;;;;;;112.43;57.27;;;;;;;5.86;80.82;101197.24;126223;1099;23412;-77
2020/12/17 04:27:25;;;;;;;113.60;57.38;;;;;;;5.86;81.14;101201.81;126265;1098;23337;-76
2020/12/17 04:29:54;;;;;;;112.57;58.52;;;;;;;5.83;81.28;101192.13;126702;1098;26408;-76
2020/12/17 04:32:22;;;;;;;111.33;58.83;;;;;;;5.83;81.48;101194.83;126224;1101;23427;-76
2020/12/17 04:34:51;;;;;;;121.93;61.27;;;;;;;5.80;80.85;101192.39;126172;1101;23549;-78
2020/12/17 04:37:20;;;;;;;115.65;62.30;;;;;;;5.79;80.36;101192.55;126165;1100;23321;-77
2020/12/17 04:39:48;;;;;;;110.70;57.25;;;;;;;5.78;81.27;101193.53;126257;1098;23431;-77
2020/12/17 04:42:17;;;;;;;115.20;59.38;;;;;;;5.77;81.10;101189.13;126315;1098;23334;-77
2020/12/17 04:44:45;;;;;;;121.87;60.00;;;;;;;5.77;81.22;101189.97;126246;1100;23337;-75
2020/12/17 04:47:19;;;;;;;126.53;65.23;;;;;;;5.77;81.20;101181.00;126149;1101;23370;-76
2020/12/17 04:49:52;;;;;;;107.50;59.27;;;;;;;5.76;80.65;101180.15;126715;1098;23366;-77
2020/12/17 04:52:22;;;;;;;125.78;60.98;;;;;;;5.77;80.77;101186.41;126237;1100;23392;-76
2020/12/17 04:54:50;;;;;;;105.45;58.08;;;;;;;5.76;80.51;101188.27;126683;1099;23368;-76
2020/12/17 04:57:26;;;;;;;139.43;70.75;;;;;;;5.75;80.89;101197.38;126242;1100;23455;-77
2020/12/17 04:59:55;;;;;;;122.55;68.60;;;;;;;5.77;80.88;101200.80;126167;1100;23369;-77
2020/12/17 05:02:23;;;;;;;117.97;58.75;;;;;;;5.78;80.54;101202.50;126204;1101;26842;-77
2020/12/17 05:04:54;;;;;;;127.47;69.17;;;;;;;5.79;81.32;101201.52;126298;1100;26877;-76
2020/12/17 05:07:24;;;;;;;160.00;92.82;;;;;;;5.80;80.87;101197.80;126573;1100;23376;-77
2020/12/17 05:09:52;;;;;;;285.38;151.37;;;;;;;5.80;81.02;101200.51;126484;1100;23370;-77
2020/12/17 05:12:20;;;;;;;278.40;136.00;;;;;;;5.82;81.00;101200.38;126433;1100;23374;-75
2020/12/17 05:14:49;;;;;;;221.35;108.92;;;;;;;5.81;80.50;101199.53;126474;1100;24330;-75
2020/12/17 05:17:17;;;;;;;246.90;122.63;;;;;;;5.78;80.97;101204.36;126428;1100;23437;-75
2020/12/17 05:19:45;;;;;;;311.20;153.57;;;;;;;5.75;80.69;101207.36;126447;1100;23324;-75
2020/12/17 05:22:16;;;;;;;295.50;129.40;;;;;;;5.77;80.66;101213.48;126809;1098;23536;-74
2020/12/17 05:24:46;;;;;;;217.25;95.75;;;;;;;5.77;81.15;101198.09;126372;1100;23404;-75
2020/12/17 05:27:16;;;;;;;156.80;79.60;;;;;;;5.77;80.66;101198.09;126452;1100;23342;-75
2020/12/17 05:29:44;;;;;;;387.72;229.10;;;;;;;5.80;80.73;101205.92;126407;1098;25087;-75
2020/12/17 05:32:19;;;;;;;275.77;155.73;;;;;;;5.82;81.13;101201.23;126453;1100;23360;-74
2020/12/17 05:34:50;;;;;;;182.37;98.03;;;;;;;5.85;80.43;101208.23;126483;1100;23330;-76
2020/12/17 05:37:22;;;;;;;165.75;87.02;;;;;;;5.86;81.04;101208.08;126524;1099;23473;-78
2020/12/17 05:40:03;;;;;;;114.52;63.73;;;;;;;5.86;80.35;101205.37;126386;1101;23454;-78
2020/12/17 05:42:31;;;;;;;117.85;62.60;;;;;;;5.89;80.94;101204.26;126975;1098;26535;-77
2020/12/17 05:44:59;;;;;;;114.90;61.95;;;;;;;5.89;80.74;101204.26;126866;1099;23315;-76
2020/12/17 05:47:28;;;;;;;110.83;62.33;;;;;;;5.87;81.04;101206.25;126471;1098;26530;-76
2020/12/17 05:49:57;;;;;;;123.70;76.17;;;;;;;5.83;80.79;101205.66;126875;1098;26792;-75
2020/12/17 05:52:26;;;;;;;106.52;60.95;;;;;;;5.83;80.30;101210.23;126862;1100;23330;-74
2020/12/17 05:54:54;;;;;;;114.57;59.75;;;;;;;5.81;80.06;101206.80;126700;1100;23437;-74
2020/12/17 05:57:23;;;;;;;101.42;54.05;;;;;;;5.79;80.63;101209.64;126812;1098;23343;-73
2020/12/17 05:59:55;;;;;;;101.55;54.15;;;;;;;5.80;80.62;101208.63;126667;1099;26415;-74
2020/12/17 06:02:25;;;;;;;110.60;60.03;;;;;;;5.80;80.63;101211.34;126225;1100;23405;-75
2020/12/17 06:05:14;;;;;;;90.20;49.90;;;;;;;5.80;80.21;101205.92;126328;1098;23349;-77
2020/12/17 06:07:48;;;;;;;87.62;48.83;;;;;;;5.76;80.17;101203.64;126280;1100;23379;-74
2020/12/17 06:10:28;;;;;;;90.60;50.08;;;;;;;5.74;80.82;101209.22;126736;1100;26434;-77
2020/12/17 06:13:02;;;;;;;118.10;68.77;;;;;;;5.72;80.46;101213.91;126362;1100;23542;-72
2020/12/17 06:15:33;;;;;;;92.80;54.77;;;;;;;5.68;80.18;101215.19;126674;1098;23353;-73
2020/12/17 06:18:03;;;;;;;103.03;63.03;;;;;;;5.65;80.15;101215.44;126275;1099;23392;-74
2020/12/17 06:20:33;;;;;;;92.50;54.17;;;;;;;5.65;80.60;101210.03;126287;1100;26879;-73
2020/12/17 06:23:06;;;;;;;79.23;46.53;;;;;;;5.66;80.29;101206.34;126736;1099;23316;-73
2020/12/17 06:25:36;;;;;;;90.65;56.53;;;;;;;5.65;80.18;101210.88;126742;1098;23337;-76
2020/12/17 06:28:05;;;;;;;96.87;58.10;;;;;;;5.66;80.72;101214.47;126277;1100;23392;-74
2020/12/17 06:30:41;;;;;;;93.30;55.05;;;;;;;5.64;80.87;101211.04;126313;1100;26504;-75
2020/12/17 06:33:12;;;;;;;102.35;54.60;;;;;;;5.64;80.87;101217.30;126300;1100;23405;-75
2020/12/17 06:35:54;;;;;;;85.25;49.45;;;;;;;5.66;80.56;101218.02;126287;1099;26805;-74
2020/12/17 06:38:27;;;;;;;86.05;51.40;;;;;;;5.65;80.05;101228.98;126310;1098;23389;-75
2020/12/17 06:40:56;;;;;;;94.35;53.90;;;;;;;5.61;80.23;101224.83;126719;1098;23382;-74
2020/12/17 06:43:36;;;;;;;88.70;53.70;;;;;;;5.60;80.53;101231.25;126281;1100;23495;-75
2020/12/17 06:46:05;;;;;;;92.82;49.80;;;;;;;5.58;80.56;101228.67;126806;1098;23342;-77
2020/12/17 06:48:40;;;;;;;89.77;50.85;;;;;;;5.58;80.83;101233.23;126196;1100;23430;-82
2020/12/17 06:51:40;;;;;;;94.93;50.97;;;;;;;5.57;80.24;101239.63;126300;1100;23345;-81
2020/12/17 06:54:28;;;;;;;82.97;48.25;;;;;;;5.59;81.06;101240.35;126236;1100;23397;-75
2020/12/17 06:57:05;;;;;;;100.02;60.60;;;;;;;5.65;80.96;101250.64;126576;1098;23465;-75
2020/12/17 06:59:35;;;;;;;90.70;51.37;;;;;;;5.65;80.59;101245.22;126247;1098;23814;-77
2020/12/17 07:02:05;;;;;;;97.27;58.70;;;;;;;5.64;80.95;101243.52;126243;1100;23377;-72
2020/12/17 07:04:45;;;;;;;90.75;55.73;;;;;;;5.62;80.60;101242.80;126165;1101;23365;-73
2020/12/17 07:07:21;;;;;;;116.57;64.90;;;;;;;5.60;80.20;101236.67;126689;1098;23352;-71
2020/12/17 07:09:55;;;;;;;109.40;60.00;;;;;;;5.60;80.39;101236.67;126261;1099;23382;-75
2020/12/17 07:12:37;;;;;;;105.22;56.53;;;;;;;5.60;80.37;101226.69;126250;1098;23375;-72
2020/12/17 07:15:29;;;;;;;126.03;66.57;;;;;;;5.62;80.57;101237.39;126718;1098;23525;-73
2020/12/17 07:18:27;;;;;;;;;;;;;;;5.55;80.32;101239.79;126637;1098;23529;-76
2020/12/17 07:21:06;;;;;;;105.03;54.58;;;;;;;5.52;80.33;101227.36;126103;1101;21496;-79
2020/12/17 07:23:37;;;;;;;106.83;56.73;;;;;;;5.53;80.92;101236.36;126115;1101;23372;-73
2020/12/17 07:26:12;;;;;;;109.42;55.38;;;;;;;5.53;80.30;101237.22;125885;1103;23350;-73
2020/12/17 07:28:52;;;;;;;103.27;58.23;;;;;;;5.57;80.92;101236.92;126174;1101;25192;-73
2020/12/17 07:31:27;;;;;;;86.13;52.00;;;;;;;5.57;80.59;101237.81;125927;1102;23388;-72
2020/12/17 07:34:15;;;;;;;97.35;55.73;;;;;;;5.57;80.04;101236.92;125865;1103;23339;-74
2020/12/17 07:36:47;;;;;;;118.80;61.02;;;;;;;5.57;80.63;101229.69;125888;1103;25100;-74
2020/12/17 07:39:16;;;;;;;113.72;62.60;;;;;;;5.63;80.57;101230.97;126165;1102;23420;-71
2020/12/17 07:41:44;;;;;;;105.65;58.28;;;;;;;5.66;80.14;101228.00;125880;1103;23416;-71
2020/12/17 07:44:37;;;;;;;110.65;62.25;;;;;;;5.70;80.47;101232.15;125942;1101;26425;-73
2020/12/17 07:47:21;;;;;;;93.22;54.42;;;;;;;5.72;80.82;101227.45;125898;1103;26571;-72
2020/12/17 07:49:50;;;;;;;107.67;60.53;;;;;;;5.71;80.11;101233.84;125843;1105;23455;-72
2020/12/17 07:52:33;;;;;;;114.62;62.08;;;;;;;5.70;80.54;101232.99;126143;1101;26849;-72
2020/12/17 07:55:03;;;;;;;106.75;60.05;;;;;;;5.69;80.26;101233.13;125920;1102;23345;-72
2020/12/17 07:57:31;;;;;;;130.63;71.67;;;;;;;5.70;80.76;101226.73;126019;1100;23361;-73
2020/12/17 07:59:59;;;;;;;130.55;69.55;;;;;;;5.71;80.03;101234.69;126183;1098;23393;-74
2020/12/17 08:02:28;;;;;;;97.33;55.23;;;;;;;5.73;80.46;101230.00;126596;1098;23413;-73
2020/12/17 08:04:56;;;;;;;114.23;64.10;;;;;;;5.78;80.29;101239.56;126254;1100;23394;-73
2020/12/17 08:07:25;;;;;;;106.95;63.60;;;;;;;5.83;80.47;101231.89;126629;1099;23342;-75
2020/12/17 08:10:01;;;;;;;117.77;69.47;;;;;;;5.86;80.49;101232.45;126251;1100;23411;-73
2020/12/17 08:12:29;;;;;;;91.82;54.63;;;;;;;5.87;80.47;101234.18;126188;1100;26328;-72
2020/12/17 08:15:08;;;;;;;104.65;58.95;;;;;;;5.90;80.31;101231.17;126378;1100;23934;-72
2020/12/17 08:17:36;;;;;;;116.97;61.70;;;;;;;5.93;80.21;101238.16;126392;1100;25174;-74
2020/12/17 08:20:05;;;;;;;109.72;66.07;;;;;;;5.96;80.03;101242.50;126428;1099;23345;-72
2020/12/17 08:22:34;;;;;;;115.33;62.87;;;;;;;6.03;79.91;101243.64;126410;1100;23335;-73
2020/12/17 08:25:05;;;;;;;118.30;60.43;;;;;;;6.03;80.37;101235.52;126446;1100;26827;-74
2020/12/17 08:27:33;;;;;;;114.57;61.40;;;;;;;6.02;79.51;101237.37;126814;1098;23346;-73
2020/12/17 08:30:03;;;;;;;126.05;64.50;;;;;;;6.01;80.07;101232.94;126375;1100;26542;-72
2020/12/17 08:32:32;;;;;;;111.97;67.58;;;;;;;5.99;79.81;101231.38;126351;1100;23368;-74
2020/12/17 08:35:00;;;;;;;95.70;54.60;;;;;;;5.98;79.46;101233.23;126668;1099;23376;-72
2020/12/17 08:37:28;;;;;;;107.58;60.85;;;;;;;5.98;80.01;101233.23;126283;1100;23346;-74
2020/12/17 08:40:05;;;;;;;112.15;64.37;;;;;;;6.00;79.85;101238.52;126305;1098;23380;-73
2020/12/17 08:42:37;;;;;;;86.32;51.63;;;;;;;5.98;79.39;101232.38;126252;1101;26894;-75
2020/12/17 08:45:11;;;;;;;99.47;60.52;;;;;;;5.96;79.22;101228.95;126314;1099;23394;-75
2020/12/17 08:47:42;;;;;;;102.40;57.65;;;;;;;5.96;79.79;101226.25;126252;1100;27104;-76
2020/12/17 08:50:10;;;;;;;114.25;65.25;;;;;;;6.00;79.83;101225.82;126217;1100;23401;-79
2020/12/17 08:52:38;;;;;;;108.95;60.12;;;;;;;6.03;79.26;101221.97;126213;1101;23402;-74
2020/12/17 08:55:10;;;;;;;112.63;65.80;;;;;;;6.04;79.44;101216.42;126287;1099;26750;-77
2020/12/17 08:57:38;;;;;;;123.35;73.78;;;;;;;6.05;79.67;101214.56;126204;1101;23555;-75
2020/12/17 09:00:19;;;;;;;109.57;63.87;;;;;;;6.07;79.34;101204.44;126387;1101;23536;-72
2020/12/17 09:02:47;;;;;;;125.35;68.92;;;;;;;6.07;79.49;101210.70;126461;1100;23347;-74
2020/12/17 09:05:16;;;;;;;117.35;67.35;;;;;;;6.06;78.53;101206.30;126504;1100;24832;-73
2020/12/17 09:07:52;;;;;;;101.30;60.73;;;;;;;6.07;78.66;101201.73;126434;1100;23582;-76
2020/12/17 09:10:21;;;;;;;98.78;57.78;;;;;;;6.10;78.64;101199.61;126453;1100;23415;-77
2020/12/17 09:12:55;;;;;;;99.75;59.30;;;;;;;6.13;78.88;101198.46;126396;1101;23718;-74
2020/12/17 09:15:28;;;;;;;99.00;59.48;;;;;;;6.16;78.55;101195.45;126602;1097;23293;-75
2020/12/17 09:18:10;;;;;;;104.25;60.85;;;;;;;6.23;78.83;101206.57;126635;1100;23491;-77
2020/12/17 09:20:39;;;;;;;91.80;55.03;;;;;;;6.28;78.70;101207.02;126514;1101;23469;-78
2020/12/17 09:23:10;;;;;;;86.73;55.93;;;;;;;6.33;78.63;101210.99;126448;1101;23092;-77
2020/12/17 09:25:38;;;;;;;93.50;55.28;;;;;;;6.36;78.43;101209.00;126457;1101;23359;-78
2020/12/17 09:28:20;;;;;;;90.85;54.42;;;;;;;6.37;78.66;101210.72;126990;1100;26916;-76
2020/12/17 09:30:48;;;;;;;95.50;57.67;;;;;;;6.36;77.97;101211.70;127017;1101;23376;-78
2020/12/17 09:33:17;;;;;;;95.23;54.73;;;;;;;6.38;78.82;101209.70;126462;1101;23397;-78
2020/12/17 09:35:46;;;;;;;81.02;48.08;;;;;;;6.42;77.99;101211.14;126443;1093;23547;-77
2020/12/17 09:38:19;;;;;;;82.60;48.55;;;;;;;6.43;77.86;101204.73;126387;1100;23477;-79
2020/12/17 09:40:53;;;;;;;80.80;49.67;;;;;;;6.40;78.25;101199.58;126903;1100;23409;-75
2020/12/17 09:43:22;;;;;;;65.72;40.40;;;;;;;6.33;77.34;101192.02;126443;1100;25841;-77
2020/12/17 09:45:53;;;;;;;66.07;39.78;;;;;;;6.32;77.42;101212.01;126494;1100;26421;-77
2020/12/17 09:48:24;;;;;;;51.83;35.45;;;;;;;6.30;76.88;101202.31;126504;1100;23328;-77
2020/12/17 09:51:01;;;;;;;49.95;26.82;;;;;;;6.29;77.04;101198.75;126695;1100;23329;-71
2020/12/17 09:53:36;;;;;;;53.90;34.58;;;;;;;6.24;76.91;101200.17;126438;1100;23360;-73
2020/12/17 09:56:09;;;;;;;53.92;34.60;;;;;;;6.23;76.62;101191.20;126556;1100;26493;-76
2020/12/17 09:58:43;;;;;;;55.63;36.33;;;;;;;6.17;75.97;101191.77;126678;1098;24122;-74
2020/12/17 10:01:13;;;;;;;61.17;36.90;;;;;;;6.13;76.33;101184.91;126429;1100;23339;-74
2020/12/17 10:03:41;;;;;;;55.80;36.95;;;;;;;6.11;76.11;101195.03;126481;1100;23376;-77
2020/12/17 10:06:11;;;;;;;60.75;40.12;;;;;;;6.11;76.21;101186.91;126425;1100;23520;-73
2020/12/17 10:08:41;;;;;;;60.88;40.88;;;;;;;6.13;76.11;101179.49;126474;1101;23318;-73
2020/12/17 10:11:10;;;;;;;64.75;38.90;;;;;;;6.16;75.67;101186.48;126468;1101;26817;-78
2020/12/17 10:13:38;;;;;;;63.42;38.53;;;;;;;6.15;75.34;101187.48;126514;1093;23509;-78
2020/12/17 10:16:06;;;;;;;46.23;32.23;;;;;;;6.08;75.00;101187.17;126464;1094;23469;-77
2020/12/17 10:18:34;;;;;;;66.00;40.15;;;;;;;6.06;75.57;101178.33;126517;1100;23361;-78
2020/12/17 10:21:03;;;;;;;61.75;41.45;;;;;;;6.05;75.71;101182.05;126447;1100;26555;-77
2020/12/17 10:23:31;;;;;;;57.23;39.03;;;;;;;6.02;75.00;101185.06;126427;1100;26892;-79
2020/12/17 10:25:59;;;;;;;63.30;41.00;;;;;;;6.00;75.20;101176.22;126453;1093;23328;-76
2020/12/17 10:28:27;;;;;;;71.62;47.70;;;;;;;6.01;75.06;101177.91;126572;1093;23377;-77
2020/12/17 10:30:59;;;;;;;65.12;44.98;;;;;;;6.06;76.14;101175.63;126390;1100;23382;-75
2020/12/17 10:33:28;;;;;;;80.03;49.18;;;;;;;6.11;75.67;101182.34;126305;1098;23466;-75
2020/12/17 10:35:56;;;;;;;65.03;43.23;;;;;;;6.11;75.11;101187.75;126309;1100;23427;-73
2020/12/17 10:38:24;;;;;;;68.78;44.83;;;;;;;6.14;75.71;101186.61;126272;1100;23395;-71
2020/12/17 10:40:52;;;;;;;72.05;48.23;;;;;;;6.13;74.85;101190.33;126244;1100;23329;-71
2020/12/17 10:43:21;;;;;;;71.97;45.10;;;;;;;6.09;74.32;101188.91;126330;1100;23383;-73
2020/12/17 10:45:49;;;;;;;64.30;41.05;;;;;;;6.06;74.73;101184.62;126293;1100;23333;-73
2020/12/17 10:48:17;;;;;;;71.22;44.08;;;;;;;6.01;74.59;101178.77;126274;1100;23388;-73
2020/12/17 10:50:47;;;;;;;70.17;43.77;;;;;;;5.99;74.67;101178.05;126419;1093;26430;-73
2020/12/17 10:53:16;;;;;;;60.85;38.78;;;;;;;6.04;74.78;101191.16;126206;1100;24915;-72
2020/12/17 10:55:44;;;;;;;60.40;41.02;;;;;;;6.01;74.10;101184.17;126173;1100;25198;-71
2020/12/17 10:58:15;;;;;;;65.35;42.55;;;;;;;6.00;74.01;101179.77;126234;1100;23321;-72
2020/12/17 11:00:46;;;;;;;67.83;43.27;;;;;;;6.03;73.99;101179.48;126307;1100;23331;-72
2020/12/17 11:03:14;;;;;;;63.25;42.10;;;;;;;6.07;74.33;101180.06;126419;1100;23342;-72
2020/12/17 11:05:42;;;;;;;60.60;40.98;;;;;;;6.20;74.62;101175.20;126196;1101;26747;-74
2020/12/17 11:08:11;;;;;;;58.40;39.77;;;;;;;6.22;74.22;101172.36;126277;1099;23393;-73
2020/12/17 11:10:39;;;;;;;58.00;37.63;;;;;;;6.29;74.59;101179.79;126207;1100;26826;-73
2020/12/17 11:13:18;;;;;;;69.00;42.88;;;;;;;6.34;73.96;101176.64;126401;1099;27830;-73
2020/12/17 11:15:49;;;;;;;69.00;46.20;;;;;;;6.43;74.15;101172.20;126205;1100;25080;-74
2020/12/17 11:18:17;;;;;;;57.53;39.73;;;;;;;6.62;74.46;101171.33;126386;1098;25168;-73
2020/12/17 11:20:46;;;;;;;61.53;43.80;;;;;;;6.81;74.27;101178.56;126224;1098;23395;-72